sensor_id;sensor_type;location;lat;lon;timestamp;pressure;altitude;pressure_sealevel;temperature;humidity
71239;BME280;61342;51.442;7.370;2023-06-26T00:00:53;99745.50;;;27.03;47.15
71239;BME280;61342;51.442;7.370;2023-06-26T00:01:53;99736.56;;;27.01;47.38
71239;BME280;61342;51.442;7.370;2023-06-26T00:02:54;99741.13;;;27.04;47.35
71239;BME280;61342;51.442;7.370;2023-06-26T00:03:55;99741.25;;;27.06;47.11
71239;BME280;61342;51.442;7.370;2023-06-26T00:04:55;99739.94;;;27.09;47.31
71239;BME280;61342;51.442;7.370;2023-06-26T00:05:55;99740.81;;;27.12;46.93
71239;BME280;61342;51.442;7.370;2023-06-26T00:07:00;99731.16;;;27.11;47.33
71239;BME280;61342;51.442;7.370;2023-06-26T00:08:00;99737.63;;;27.08;47.09
71239;BME280;61342;51.442;7.370;2023-06-26T00:09:01;99733.34;;;27.11;47.31
71239;BME280;61342;51.442;7.370;2023-06-26T00:10:03;99745.91;;;27.11;47.31
71239;BME280;61342;51.442;7.370;2023-06-26T00:11:03;99739.19;;;27.09;46.60
71239;BME280;61342;51.442;7.370;2023-06-26T00:12:04;99741.78;;;27.03;47.10
71239;BME280;61342;51.442;7.370;2023-06-26T00:13:05;99738.09;;;27.02;47.09
71239;BME280;61342;51.442;7.370;2023-06-26T00:14:05;99746.94;;;27.02;47.23
71239;BME280;61342;51.442;7.370;2023-06-26T00:15:06;99730.97;;;26.94;47.04
71239;BME280;61342;51.442;7.370;2023-06-26T00:16:08;99742.91;;;26.96;47.34
71239;BME280;61342;51.442;7.370;2023-06-26T00:17:08;99735.09;;;26.89;47.18
71239;BME280;61342;51.442;7.370;2023-06-26T00:18:09;99740.25;;;26.88;47.59
71239;BME280;61342;51.442;7.370;2023-06-26T00:19:09;99734.13;;;26.84;47.32
71239;BME280;61342;51.442;7.370;2023-06-26T00:20:09;99732.38;;;26.79;47.37
71239;BME280;61342;51.442;7.370;2023-06-26T00:21:10;99735.22;;;26.77;47.83
71239;BME280;61342;51.442;7.370;2023-06-26T00:22:11;99741.13;;;26.77;47.75
71239;BME280;61342;51.442;7.370;2023-06-26T00:23:12;99736.75;;;26.78;47.71
71239;BME280;61342;51.442;7.370;2023-06-26T00:24:14;99736.75;;;26.78;48.03
71239;BME280;61342;51.442;7.370;2023-06-26T00:25:14;99736.75;;;26.78;47.47
71239;BME280;61342;51.442;7.370;2023-06-26T00:26:15;99742.84;;;26.82;47.46
71239;BME280;61342;51.442;7.370;2023-06-26T00:27:15;99742.97;;;26.84;47.30
71239;BME280;61342;51.442;7.370;2023-06-26T00:28:15;99743.72;;;26.85;47.60
71239;BME280;61342;51.442;7.370;2023-06-26T00:29:16;99733.47;;;26.86;47.86
71239;BME280;61342;51.442;7.370;2023-06-26T00:30:16;99739.38;;;26.86;47.75
71239;BME280;61342;51.442;7.370;2023-06-26T00:31:17;99737.75;;;26.83;47.58
71239;BME280;61342;51.442;7.370;2023-06-26T00:32:17;99732.94;;;26.76;47.23
71239;BME280;61342;51.442;7.370;2023-06-26T00:33:17;99738.28;;;26.79;47.24
71239;BME280;61342;51.442;7.370;2023-06-26T00:34:18;99740.56;;;26.81;47.13
71239;BME280;61342;51.442;7.370;2023-06-26T00:35:19;99738.28;;;26.79;47.66
71239;BME280;61342;51.442;7.370;2023-06-26T00:36:20;99733.91;;;26.80;47.13
71239;BME280;61342;51.442;7.370;2023-06-26T00:37:22;99731.06;;;26.82;47.32
71239;BME280;61342;51.442;7.370;2023-06-26T00:38:23;99733.59;;;26.88;47.35
71239;BME280;61342;51.442;7.370;2023-06-26T00:39:24;99736.53;;;26.88;47.12
71239;BME280;61342;51.442;7.370;2023-06-26T00:40:25;99733.81;;;26.92;47.45
71239;BME280;61342;51.442;7.370;2023-06-26T00:41:26;99730.31;;;26.95;47.15
71239;BME280;61342;51.442;7.370;2023-06-26T00:42:27;99726.47;;;26.93;47.21
71239;BME280;61342;51.442;7.370;2023-06-26T00:43:27;99732.94;;;27.03;46.92
71239;BME280;61342;51.442;7.370;2023-06-26T00:44:28;99733.69;;;27.03;46.85
71239;BME280;61342;51.442;7.370;2023-06-26T00:45:51;99721.56;;;27.11;47.50
71239;BME280;61342;51.442;7.370;2023-06-26T00:47:11;99717.19;;;27.12;46.78
71239;BME280;61342;51.442;7.370;2023-06-26T00:48:13;99736.50;;;27.28;46.83
71239;BME280;61342;51.442;7.370;2023-06-26T00:49:14;99734.63;;;27.34;46.12
71239;BME280;61342;51.442;7.370;2023-06-26T00:50:14;99730.34;;;27.37;46.29
71239;BME280;61342;51.442;7.370;2023-06-26T00:51:18;99732.75;;;27.41;46.56
71239;BME280;61342;51.442;7.370;2023-06-26T00:52:18;99730.66;;;27.43;46.38
71239;BME280;61342;51.442;7.370;2023-06-26T00:53:19;99726.94;;;27.43;45.85
71239;BME280;61342;51.442;7.370;2023-06-26T00:54:20;99728.56;;;27.46;46.31
71239;BME280;61342;51.442;7.370;2023-06-26T00:55:22;99724.19;;;27.47;46.01
71239;BME280;61342;51.442;7.370;2023-06-26T00:56:23;99718.28;;;27.47;45.85
71239;BME280;61342;51.442;7.370;2023-06-26T00:57:24;99722.53;;;27.44;45.54
71239;BME280;61342;51.442;7.370;2023-06-26T00:58:25;99726.28;;;27.44;46.22
71239;BME280;61342;51.442;7.370;2023-06-26T00:59:25;99724.00;;;27.43;45.98
71239;BME280;61342;51.442;7.370;2023-06-26T01:00:26;99715.03;;;27.41;45.66
71239;BME280;61342;51.442;7.370;2023-06-26T01:01:26;99718.09;;;27.43;45.92
71239;BME280;61342;51.442;7.370;2023-06-26T01:02:27;99717.97;;;27.41;45.84
71239;BME280;61342;51.442;7.370;2023-06-26T01:03:33;99719.50;;;27.42;45.32
71239;BME280;61342;51.442;7.370;2023-06-26T01:04:33;99716.44;;;27.40;45.75
71239;BME280;61342;51.442;7.370;2023-06-26T01:05:34;99719.38;;;27.40;45.42
71239;BME280;61342;51.442;7.370;2023-06-26T01:06:35;99714.81;;;27.37;45.38
71239;BME280;61342;51.442;7.370;2023-06-26T01:07:36;99716.34;;;27.38;45.49
71239;BME280;61342;51.442;7.370;2023-06-26T01:08:38;99717.56;;;27.33;46.15
71239;BME280;61342;51.442;7.370;2023-06-26T01:09:39;99722.59;;;27.31;46.01
71239;BME280;61342;51.442;7.370;2023-06-26T01:10:40;99719.56;;;27.29;46.09
71239;BME280;61342;51.442;7.370;2023-06-26T01:11:41;99717.22;;;27.27;46.02
71239;BME280;61342;51.442;7.370;2023-06-26T01:12:42;99708.75;;;27.20;45.90
71239;BME280;61342;51.442;7.370;2023-06-26T01:13:43;99710.16;;;27.19;46.36
71239;BME280;61342;51.442;7.370;2023-06-26T01:14:46;99707.75;;;27.15;46.53
71239;BME280;61342;51.442;7.370;2023-06-26T01:15:46;99714.91;;;27.10;46.13
71239;BME280;61342;51.442;7.370;2023-06-26T01:16:49;99710.94;;;27.06;46.08
71239;BME280;61342;51.442;7.370;2023-06-26T01:17:50;99713.59;;;27.00;46.32
71239;BME280;61342;51.442;7.370;2023-06-26T01:18:52;99712.47;;;26.93;46.21
71239;BME280;61342;51.442;7.370;2023-06-26T01:19:53;99703.28;;;26.87;46.53
71239;BME280;61342;51.442;7.370;2023-06-26T01:20:54;99711.84;;;26.81;46.61
71239;BME280;61342;51.442;7.370;2023-06-26T01:22:19;99711.06;;;26.68;47.08
71239;BME280;61342;51.442;7.370;2023-06-26T01:23:29;99709.44;;;26.65;46.75
71239;BME280;61342;51.442;7.370;2023-06-26T01:24:35;99704.53;;;26.56;46.74
71239;BME280;61342;51.442;7.370;2023-06-26T01:27:03;99699.81;;;26.51;47.24
71239;BME280;61342;51.442;7.370;2023-06-26T01:28:06;99697.00;;;26.53;47.04
71239;BME280;61342;51.442;7.370;2023-06-26T01:29:09;99700.81;;;26.55;47.59
71239;BME280;61342;51.442;7.370;2023-06-26T01:30:11;99697.88;;;26.55;46.99
71239;BME280;61342;51.442;7.370;2023-06-26T01:31:12;99700.16;;;26.57;47.38
71239;BME280;61342;51.442;7.370;2023-06-26T01:32:13;99700.25;;;26.59;47.73
71239;BME280;61342;51.442;7.370;2023-06-26T01:33:14;99695.00;;;26.57;47.77
71239;BME280;61342;51.442;7.370;2023-06-26T01:34:16;99698.75;;;26.58;47.46
71239;BME280;61342;51.442;7.370;2023-06-26T01:35:17;99693.47;;;26.56;47.28
71239;BME280;61342;51.442;7.370;2023-06-26T01:36:18;99692.41;;;26.50;46.94
71239;BME280;61342;51.442;7.370;2023-06-26T01:37:18;99694.59;;;26.49;47.08
71239;BME280;61342;51.442;7.370;2023-06-26T01:38:20;99692.19;;;26.46;47.47
71239;BME280;61342;51.442;7.370;2023-06-26T01:39:21;99691.94;;;26.42;47.33
71239;BME280;61342;51.442;7.370;2023-06-26T01:40:21;99692.50;;;26.38;47.64
71239;BME280;61342;51.442;7.370;2023-06-26T01:41:22;99693.03;;;26.35;47.51
71239;BME280;61342;51.442;7.370;2023-06-26T01:42:22;99685.34;;;26.30;47.70
71239;BME280;61342;51.442;7.370;2023-06-26T01:45:02;99693.66;;;26.20;47.67
71239;BME280;61342;51.442;7.370;2023-06-26T01:47:49;99689.72;;;26.15;47.92
71239;BME280;61342;51.442;7.370;2023-06-26T01:49:14;99697.78;;;26.15;48.00
71239;BME280;61342;51.442;7.370;2023-06-26T01:50:22;99674.97;;;26.15;47.96
71239;BME280;61342;51.442;7.370;2023-06-26T01:51:30;99679.56;;;26.18;47.94
71239;BME280;61342;51.442;7.370;2023-06-26T01:53:55;99680.47;;;26.21;47.72
71239;BME280;61342;51.442;7.370;2023-06-26T01:55:12;99678.03;;;26.17;47.47
71239;BME280;61342;51.442;7.370;2023-06-26T01:56:16;99678.13;;;26.19;47.42
71239;BME280;61342;51.442;7.370;2023-06-26T01:57:19;99672.59;;;26.12;47.57
71239;BME280;61342;51.442;7.370;2023-06-26T01:58:24;99671.41;;;26.17;48.12
71239;BME280;61342;51.442;7.370;2023-06-26T01:59:25;99676.41;;;26.15;47.54
71239;BME280;61342;51.442;7.370;2023-06-26T02:00:28;99675.53;;;26.12;47.51
71239;BME280;61342;51.442;7.370;2023-06-26T02:01:29;99664.84;;;26.05;47.77
71239;BME280;61342;51.442;7.370;2023-06-26T02:02:31;99676.72;;;26.07;48.26
71239;BME280;61342;51.442;7.370;2023-06-26T02:03:31;99675.09;;;26.04;47.88
71239;BME280;61342;51.442;7.370;2023-06-26T02:04:32;99672.66;;;26.01;47.77
71239;BME280;61342;51.442;7.370;2023-06-26T02:05:32;99673.97;;;25.98;47.54
71239;BME280;61342;51.442;7.370;2023-06-26T02:06:33;99671.56;;;25.94;48.35
71239;BME280;61342;51.442;7.370;2023-06-26T02:07:33;99666.97;;;25.91;48.26
71239;BME280;61342;51.442;7.370;2023-06-26T02:08:33;99674.41;;;25.92;48.18
71239;BME280;61342;51.442;7.370;2023-06-26T02:09:34;99663.38;;;25.93;48.22
71239;BME280;61342;51.442;7.370;2023-06-26T02:10:40;99671.47;;;25.92;48.15
71239;BME280;61342;51.442;7.370;2023-06-26T02:11:40;99664.34;;;25.97;48.40
71239;BME280;61342;51.442;7.370;2023-06-26T02:12:41;99676.28;;;25.99;48.33
71239;BME280;61342;51.442;7.370;2023-06-26T02:13:41;99663.81;;;26.01;48.07
71239;BME280;61342;51.442;7.370;2023-06-26T02:14:42;99667.66;;;26.03;47.58
71239;BME280;61342;51.442;7.370;2023-06-26T02:15:43;99660.22;;;26.02;48.07
71239;BME280;61342;51.442;7.370;2023-06-26T02:16:43;99670.06;;;26.07;48.41
71239;BME280;61342;51.442;7.370;2023-06-26T02:17:43;99674.00;;;26.11;48.07
71239;BME280;61342;51.442;7.370;2023-06-26T02:18:48;99669.72;;;26.14;48.12
71239;BME280;61342;51.442;7.370;2023-06-26T02:19:48;99667.78;;;26.18;47.61
71239;BME280;61342;51.442;7.370;2023-06-26T02:20:49;99670.19;;;26.22;48.08
71239;BME280;61342;51.442;7.370;2023-06-26T02:21:49;99671.94;;;26.27;47.89
71239;BME280;61342;51.442;7.370;2023-06-26T02:22:50;99674.22;;;26.28;47.50
71239;BME280;61342;51.442;7.370;2023-06-26T02:23:50;99675.00;;;26.29;47.73
71239;BME280;61342;51.442;7.370;2023-06-26T02:24:50;99672.31;;;26.33;47.54
71239;BME280;61342;51.442;7.370;2023-06-26T02:25:51;99668.69;;;26.34;46.71
71239;BME280;61342;51.442;7.370;2023-06-26T02:26:51;99678.97;;;26.33;47.42
71239;BME280;61342;51.442;7.370;2023-06-26T02:27:51;99670.88;;;26.34;46.70
71239;BME280;61342;51.442;7.370;2023-06-26T02:28:52;99671.00;;;26.36;47.08
71239;BME280;61342;51.442;7.370;2023-06-26T02:29:53;99679.31;;;26.39;47.06
71239;BME280;61342;51.442;7.370;2023-06-26T02:30:53;99677.19;;;26.42;47.05
71239;BME280;61342;51.442;7.370;2023-06-26T02:31:53;99671.56;;;26.46;46.55
71239;BME280;61342;51.442;7.370;2023-06-26T02:32:54;99667.38;;;26.51;46.31
71239;BME280;61342;51.442;7.370;2023-06-26T02:33:54;99679.50;;;26.57;46.63
71239;BME280;61342;51.442;7.370;2023-06-26T02:34:55;99670.22;;;26.62;46.12
71239;BME280;61342;51.442;7.370;2023-06-26T02:35:55;99671.19;;;26.67;46.63
71239;BME280;61342;51.442;7.370;2023-06-26T02:36:56;99675.78;;;26.70;46.44
71239;BME280;61342;51.442;7.370;2023-06-26T02:37:56;99670.09;;;26.74;46.11
71239;BME280;61342;51.442;7.370;2023-06-26T02:38:56;99674.56;;;26.74;46.01
71239;BME280;61342;51.442;7.370;2023-06-26T02:39:57;99671.81;;;26.78;46.10
71239;BME280;61342;51.442;7.370;2023-06-26T02:40:57;99668.78;;;26.76;45.54
71239;BME280;61342;51.442;7.370;2023-06-26T02:41:58;99669.53;;;26.77;45.57
71239;BME280;61342;51.442;7.370;2023-06-26T02:42:58;99670.97;;;26.76;45.43
71239;BME280;61342;51.442;7.370;2023-06-26T02:43:58;99675.34;;;26.75;46.15
71239;BME280;61342;51.442;7.370;2023-06-26T02:44:59;99681.91;;;26.74;46.02
71239;BME280;61342;51.442;7.370;2023-06-26T02:45:59;99677.31;;;26.71;46.31
71239;BME280;61342;51.442;7.370;2023-06-26T02:47:00;99672.63;;;26.66;45.51
71239;BME280;61342;51.442;7.370;2023-06-26T02:48:00;99677.66;;;26.63;46.02
71239;BME280;61342;51.442;7.370;2023-06-26T02:49:00;99680.38;;;26.59;46.06
71239;BME280;61342;51.442;7.370;2023-06-26T02:50:01;99688.25;;;26.55;46.10
71239;BME280;61342;51.442;7.370;2023-06-26T02:51:01;99677.53;;;26.48;46.10
71239;BME280;61342;51.442;7.370;2023-06-26T02:52:01;99677.19;;;26.42;46.12
71239;BME280;61342;51.442;7.370;2023-06-26T02:53:05;99679.94;;;26.38;46.76
71239;BME280;61342;51.442;7.370;2023-06-26T02:54:05;99668.69;;;26.34;46.33
71239;BME280;61342;51.442;7.370;2023-06-26T02:55:08;99678.97;;;26.33;46.36
71239;BME280;61342;51.442;7.370;2023-06-26T02:56:11;99678.84;;;26.31;47.37
71239;BME280;61342;51.442;7.370;2023-06-26T02:57:12;99672.06;;;26.29;46.16
71239;BME280;61342;51.442;7.370;2023-06-26T02:58:13;99684.50;;;26.27;46.76
71239;BME280;61342;51.442;7.370;2023-06-26T02:59:14;99677.81;;;26.27;47.07
71239;BME280;61342;51.442;7.370;2023-06-26T03:00:14;99678.38;;;26.23;46.90
71239;BME280;61342;51.442;7.370;2023-06-26T03:01:15;99686.34;;;26.21;46.99
71239;BME280;61342;51.442;7.370;2023-06-26T03:02:15;99681.66;;;26.16;47.29
71239;BME280;61342;51.442;7.370;2023-06-26T03:03:16;99678.47;;;26.12;47.03
71239;BME280;61342;51.442;7.370;2023-06-26T03:04:16;99687.19;;;26.10;46.69
71239;BME280;61342;51.442;7.370;2023-06-26T03:05:18;99682.50;;;26.05;47.23
71239;BME280;61342;51.442;7.370;2023-06-26T03:06:18;99686.66;;;26.00;47.63
71239;BME280;61342;51.442;7.370;2023-06-26T03:07:18;99690.03;;;25.95;47.79
71239;BME280;61342;51.442;7.370;2023-06-26T03:08:19;99694.91;;;25.90;47.69
71239;BME280;61342;51.442;7.370;2023-06-26T03:09:19;99689.44;;;25.85;47.12
71239;BME280;61342;51.442;7.370;2023-06-26T03:10:20;99689.09;;;25.79;48.02
71239;BME280;61342;51.442;7.370;2023-06-26T03:11:20;99696.28;;;25.76;47.46
71239;BME280;61342;51.442;7.370;2023-06-26T03:12:21;99697.59;;;25.73;48.03
71239;BME280;61342;51.442;7.370;2023-06-26T03:13:21;99690.69;;;25.68;48.17
71239;BME280;61342;51.442;7.370;2023-06-26T03:14:21;99696.56;;;25.68;48.09
71239;BME280;61342;51.442;7.370;2023-06-26T03:15:22;99694.25;;;25.67;48.60
71239;BME280;61342;51.442;7.370;2023-06-26T03:16:22;99695.03;;;25.67;48.49
71239;BME280;61342;51.442;7.370;2023-06-26T03:17:22;99698.09;;;25.69;48.66
71239;BME280;61342;51.442;7.370;2023-06-26T03:18:23;99698.09;;;25.69;48.44
71239;BME280;61342;51.442;7.370;2023-06-26T03:19:23;99684.16;;;25.70;48.29
71239;BME280;61342;51.442;7.370;2023-06-26T03:20:24;99702.72;;;25.72;48.22
71239;BME280;61342;51.442;7.370;2023-06-26T03:21:24;99689.41;;;25.71;48.60
71239;BME280;61342;51.442;7.370;2023-06-26T03:22:24;99701.19;;;25.71;48.59
71239;BME280;61342;51.442;7.370;2023-06-26T03:23:25;99698.09;;;25.69;48.74
71239;BME280;61342;51.442;7.370;2023-06-26T03:24:25;99706.94;;;25.69;48.25
71239;BME280;61342;51.442;7.370;2023-06-26T03:25:26;99700.13;;;25.67;48.21
71239;BME280;61342;51.442;7.370;2023-06-26T03:26:26;99703.75;;;25.65;49.27
71239;BME280;61342;51.442;7.370;2023-06-26T03:27:27;99706.34;;;25.59;48.68
71239;BME280;61342;51.442;7.370;2023-06-26T03:28:28;99697.38;;;25.57;48.49
71239;BME280;61342;51.442;7.370;2023-06-26T03:29:28;99699.75;;;25.48;48.59
71239;BME280;61342;51.442;7.370;2023-06-26T03:30:29;99696.69;;;25.46;49.37
71239;BME280;61342;51.442;7.370;2023-06-26T03:31:30;99700.78;;;25.41;49.47
71239;BME280;61342;51.442;7.370;2023-06-26T03:32:30;99706.56;;;25.39;49.06
71239;BME280;61342;51.442;7.370;2023-06-26T03:33:31;99699.06;;;25.36;49.41
71239;BME280;61342;51.442;7.370;2023-06-26T03:34:31;99697.38;;;25.33;49.87
71239;BME280;61342;51.442;7.370;2023-06-26T03:35:32;99712.63;;;25.29;49.42
71239;BME280;61342;51.442;7.370;2023-06-26T03:36:32;99704.31;;;25.26;49.87
71239;BME280;61342;51.442;7.370;2023-06-26T03:37:32;99707.50;;;25.30;50.13
71239;BME280;61342;51.442;7.370;2023-06-26T03:38:33;99709.06;;;25.31;49.48
71239;BME280;61342;51.442;7.370;2023-06-26T03:39:33;99707.75;;;25.34;49.83
71239;BME280;61342;51.442;7.370;2023-06-26T03:40:34;99703.25;;;25.33;49.47
71239;BME280;61342;51.442;7.370;2023-06-26T03:41:34;99712.88;;;25.33;49.42
71239;BME280;61342;51.442;7.370;2023-06-26T03:42:35;99719.53;;;25.34;49.68
71239;BME280;61342;51.442;7.370;2023-06-26T03:43:35;99710.44;;;25.30;49.56
71239;BME280;61342;51.442;7.370;2023-06-26T03:44:35;99714.94;;;25.31;49.77
71239;BME280;61342;51.442;7.370;2023-06-26T03:45:36;99717.00;;;25.28;49.87
71239;BME280;61342;51.442;7.370;2023-06-26T03:46:36;99726.47;;;25.27;49.80
71239;BME280;61342;51.442;7.370;2023-06-26T03:47:37;99727.63;;;25.22;50.33
71239;BME280;61342;51.442;7.370;2023-06-26T03:48:37;99728.28;;;25.20;50.34
71239;BME280;61342;51.442;7.370;2023-06-26T03:49:38;99725.75;;;25.15;50.30
71239;BME280;61342;51.442;7.370;2023-06-26T03:50:38;99723.97;;;25.10;50.11
71239;BME280;61342;51.442;7.370;2023-06-26T03:51:39;99728.31;;;25.09;50.42
71239;BME280;61342;51.442;7.370;2023-06-26T03:52:39;99731.00;;;25.05;50.24
71239;BME280;61342;51.442;7.370;2023-06-26T03:53:39;99727.31;;;25.04;50.57
71239;BME280;61342;51.442;7.370;2023-06-26T03:54:40;99722.44;;;24.98;50.85
71239;BME280;61342;51.442;7.370;2023-06-26T03:55:41;99726.25;;;25.00;50.91
71239;BME280;61342;51.442;7.370;2023-06-26T03:56:42;99724.50;;;24.95;51.22
71239;BME280;61342;51.442;7.370;2023-06-26T03:57:42;99731.91;;;24.96;50.81
71239;BME280;61342;51.442;7.370;2023-06-26T03:58:42;99736.38;;;24.97;51.55
71239;BME280;61342;51.442;7.370;2023-06-26T03:59:43;99729.09;;;24.98;51.25
71239;BME280;61342;51.442;7.370;2023-06-26T04:00:43;99737.53;;;25.03;51.15
71239;BME280;61342;51.442;7.370;2023-06-26T04:01:44;99734.09;;;25.07;51.80
71239;BME280;61342;51.442;7.370;2023-06-26T04:02:44;99739.16;;;25.18;51.86
71239;BME280;61342;51.442;7.370;2023-06-26T04:03:54;99735.94;;;25.25;51.71
71239;BME280;61342;51.442;7.370;2023-06-26T04:04:55;99734.38;;;25.36;51.31
71239;BME280;61342;51.442;7.370;2023-06-26T04:05:56;99734.06;;;25.43;50.92
71239;BME280;61342;51.442;7.370;2023-06-26T04:06:56;99737.38;;;25.49;51.11
71239;BME280;61342;51.442;7.370;2023-06-26T04:07:59;99739.91;;;25.55;51.30
71239;BME280;61342;51.442;7.370;2023-06-26T04:08:59;99739.50;;;25.60;51.30
71239;BME280;61342;51.442;7.370;2023-06-26T04:10:00;99741.91;;;25.63;50.74
71239;BME280;61342;51.442;7.370;2023-06-26T04:11:00;99741.38;;;25.67;51.16
71239;BME280;61342;51.442;7.370;2023-06-26T04:12:02;99740.88;;;25.70;51.13
71239;BME280;61342;51.442;7.370;2023-06-26T04:13:02;99735.00;;;25.70;50.55
71239;BME280;61342;51.442;7.370;2023-06-26T04:14:05;99742.16;;;25.67;50.52
71239;BME280;61342;51.442;7.370;2023-06-26T04:15:09;99728.59;;;25.62;51.07
71239;BME280;61342;51.442;7.370;2023-06-26T04:16:31;99736.03;;;25.63;51.12
71239;BME280;61342;51.442;7.370;2023-06-26T04:17:31;99742.16;;;25.67;50.99
71239;BME280;61342;51.442;7.370;2023-06-26T04:18:32;99747.44;;;25.69;50.87
71239;BME280;61342;51.442;7.370;2023-06-26T04:19:33;99732.31;;;25.63;51.55
71239;BME280;61342;51.442;7.370;2023-06-26T04:20:41;99739.34;;;25.69;51.15
71239;BME280;61342;51.442;7.370;2023-06-26T04:22:01;99734.25;;;25.70;51.58
71239;BME280;61342;51.442;7.370;2023-06-26T04:23:07;99741.13;;;25.74;51.12
71239;BME280;61342;51.442;7.370;2023-06-26T04:24:26;99741.25;;;25.76;51.99
71239;BME280;61342;51.442;7.370;2023-06-26T04:25:44;99739.81;;;25.77;52.36
71239;BME280;61342;51.442;7.370;2023-06-26T04:26:47;99750.66;;;25.86;52.16
71239;BME280;61342;51.442;7.370;2023-06-26T04:27:47;99753.84;;;25.90;52.28
71239;BME280;61342;51.442;7.370;2023-06-26T04:28:48;99744.66;;;25.84;51.68
71239;BME280;61342;51.442;7.370;2023-06-26T04:29:48;99745.41;;;25.85;52.14
71239;BME280;61342;51.442;7.370;2023-06-26T04:30:49;99748.88;;;25.81;52.56
71239;BME280;61342;51.442;7.370;2023-06-26T04:31:50;99759.44;;;25.73;52.53
71239;BME280;61342;51.442;7.370;2023-06-26T04:32:53;99759.22;;;25.69;53.11
71239;BME280;61342;51.442;7.370;2023-06-26T04:33:54;99761.66;;;25.61;53.32
71239;BME280;61342;51.442;7.370;2023-06-26T04:34:55;99755.06;;;25.49;53.41
71239;BME280;61342;51.442;7.370;2023-06-26T04:35:55;99771.19;;;25.48;53.69
71239;BME280;61342;51.442;7.370;2023-06-26T04:36:56;99768.28;;;25.37;54.06
71239;BME280;61342;51.442;7.370;2023-06-26T04:37:57;99770.88;;;25.31;54.40
71239;BME280;61342;51.442;7.370;2023-06-26T04:38:58;99774.97;;;25.26;54.32
71239;BME280;61342;51.442;7.370;2023-06-26T04:39:59;99765.66;;;25.18;54.44
71239;BME280;61342;51.442;7.370;2023-06-26T04:41:02;99769.09;;;25.14;55.14
71239;BME280;61342;51.442;7.370;2023-06-26T04:42:08;99765.16;;;25.10;55.79
71239;BME280;61342;51.442;7.370;2023-06-26T04:43:14;99767.09;;;25.05;55.92
71239;BME280;61342;51.442;7.370;2023-06-26T04:44:14;99761.97;;;25.06;56.07
71239;BME280;61342;51.442;7.370;2023-06-26T04:45:15;99774.63;;;25.08;56.02
71239;BME280;61342;51.442;7.370;2023-06-26T04:46:18;99770.28;;;25.09;56.41
71239;BME280;61342;51.442;7.370;2023-06-26T04:47:54;99769.78;;;25.01;56.67
71239;BME280;61342;51.442;7.370;2023-06-26T04:48:56;99772.56;;;24.99;56.58
71239;BME280;61342;51.442;7.370;2023-06-26T04:50:00;99779.09;;;24.98;56.54
71239;BME280;61342;51.442;7.370;2023-06-26T04:51:01;99770.03;;;24.94;56.81
71239;BME280;61342;51.442;7.370;2023-06-26T04:52:01;99770.78;;;24.95;57.16
71239;BME280;61342;51.442;7.370;2023-06-26T04:53:03;99784.84;;;24.96;57.22
71239;BME280;61342;51.442;7.370;2023-06-26T04:54:03;99776.81;;;24.85;56.82
71239;BME280;61342;51.442;7.370;2023-06-26T04:55:04;99780.00;;;24.89;57.34
71239;BME280;61342;51.442;7.370;2023-06-26T04:56:04;99785.28;;;24.79;57.18
71239;BME280;61342;51.442;7.370;2023-06-26T04:57:11;99785.91;;;24.78;57.72
71239;BME280;61342;51.442;7.370;2023-06-26T04:58:12;99789.72;;;24.80;58.04
71239;BME280;61342;51.442;7.370;2023-06-26T04:59:13;99783.50;;;24.74;58.23
71239;BME280;61342;51.442;7.370;2023-06-26T05:00:15;99778.75;;;24.69;57.83
71239;BME280;61342;51.442;7.370;2023-06-26T05:01:15;99790.25;;;24.77;57.97
71239;BME280;61342;51.442;7.370;2023-06-26T05:02:16;99795.25;;;24.74;58.77
71239;BME280;61342;51.442;7.370;2023-06-26T05:03:37;99796.91;;;24.66;58.46
71239;BME280;61342;51.442;7.370;2023-06-26T05:04:37;99793.47;;;24.69;58.92
71239;BME280;61342;51.442;7.370;2023-06-26T05:05:40;99796.41;;;24.69;58.70
71239;BME280;61342;51.442;7.370;2023-06-26T05:06:40;99787.56;;;24.69;58.87
71239;BME280;61342;51.442;7.370;2023-06-26T05:07:41;99792.06;;;24.70;59.46
71239;BME280;61342;51.442;7.370;2023-06-26T05:08:42;99807.00;;;24.74;59.67
71239;BME280;61342;51.442;7.370;2023-06-26T05:09:42;99801.00;;;24.72;59.71
71239;BME280;61342;51.442;7.370;2023-06-26T05:10:49;99787.19;;;24.75;59.08
71239;BME280;61342;51.442;7.370;2023-06-26T05:11:56;99770.03;;;24.71;59.46
71239;BME280;61342;51.442;7.370;2023-06-26T05:13:02;99791.53;;;24.74;59.84
71239;BME280;61342;51.442;7.370;2023-06-26T05:14:03;99792.41;;;24.76;59.36
71239;BME280;61342;51.442;7.370;2023-06-26T05:15:04;99793.84;;;24.75;59.41
71239;BME280;61342;51.442;7.370;2023-06-26T05:16:05;99797.41;;;24.74;59.73
71239;BME280;61342;51.442;7.370;2023-06-26T05:17:06;99801.25;;;24.76;59.87
71239;BME280;61342;51.442;7.370;2023-06-26T05:18:06;99795.00;;;24.70;60.28
71239;BME280;61342;51.442;7.370;2023-06-26T05:19:06;99801.00;;;24.72;59.90
71239;BME280;61342;51.442;7.370;2023-06-26T05:20:07;99794.09;;;24.68;60.16
71239;BME280;61342;51.442;7.370;2023-06-26T05:21:09;99809.81;;;24.72;60.33
71239;BME280;61342;51.442;7.370;2023-06-26T05:22:10;99793.19;;;24.65;60.51
71239;BME280;61342;51.442;7.370;2023-06-26T05:23:11;99794.59;;;24.64;61.10
71239;BME280;61342;51.442;7.370;2023-06-26T05:24:15;99793.69;;;24.62;60.54
71239;BME280;61342;51.442;7.370;2023-06-26T05:25:18;99796.66;;;24.62;61.25
71239;BME280;61342;51.442;7.370;2023-06-26T05:26:18;99782.47;;;24.58;60.85
71239;BME280;61342;51.442;7.370;2023-06-26T05:27:19;99793.97;;;24.66;61.72
71239;BME280;61342;51.442;7.370;2023-06-26T05:28:23;99787.06;;;24.61;61.05
71239;BME280;61342;51.442;7.370;2023-06-26T05:29:25;99796.50;;;24.71;61.29
71239;BME280;61342;51.442;7.370;2023-06-26T05:30:26;99796.78;;;24.75;61.23
71239;BME280;61342;51.442;7.370;2023-06-26T05:31:27;99795.13;;;24.72;61.97
71239;BME280;61342;51.442;7.370;2023-06-26T05:32:28;99799.97;;;24.79;61.38
71239;BME280;61342;51.442;7.370;2023-06-26T05:33:31;99800.09;;;24.81;61.99
71239;BME280;61342;51.442;7.370;2023-06-26T05:34:34;99797.28;;;24.83;61.43